createdAt,value
2023-04-04T00:00:56.340Z,0.0000
2023-04-04T00:01:58.412Z,0.0000
2023-04-04T00:03:00.554Z,0.0000
2023-04-04T00:04:03.119Z,0.0000
2023-04-04T00:05:05.228Z,0.0000
2023-04-04T00:06:07.284Z,0.0000
2023-04-04T00:07:09.360Z,0.0000
2023-04-04T00:08:11.397Z,0.0000
2023-04-04T00:09:13.389Z,0.0000
2023-04-04T00:10:15.422Z,0.0000
2023-04-04T00:11:17.517Z,0.0000
2023-04-04T00:12:19.599Z,0.0000
2023-04-04T00:13:21.671Z,0.0000
2023-04-04T00:14:23.735Z,0.0000
2023-04-04T00:15:25.771Z,0.0000
2023-04-04T00:16:27.828Z,0.0000
2023-04-04T00:17:29.952Z,0.0000
2023-04-04T00:18:31.992Z,0.0000
2023-04-04T00:19:34.093Z,0.0000
2023-04-04T00:20:36.234Z,0.0000
2023-04-04T00:21:38.290Z,0.0000
2023-04-04T00:22:40.355Z,0.0000
2023-04-04T00:23:42.394Z,0.0000
2023-04-04T00:24:44.503Z,0.0000
2023-04-04T00:25:46.566Z,0.0000
2023-04-04T00:26:48.677Z,0.0000
2023-04-04T00:27:50.718Z,0.0000
2023-04-04T00:28:52.771Z,0.0000
2023-04-04T00:29:54.883Z,0.0000
2023-04-04T00:30:56.929Z,0.0000
2023-04-04T00:31:59.030Z,0.0000
2023-04-04T00:33:01.268Z,0.0000
2023-04-04T00:34:03.359Z,0.0000
2023-04-04T00:35:05.470Z,0.0000
2023-04-04T00:36:07.548Z,0.0000
2023-04-04T00:37:09.648Z,0.0000
2023-04-04T00:38:11.724Z,0.0000
2023-04-04T00:39:13.758Z,0.0000
2023-04-04T00:40:15.880Z,0.0000
2023-04-04T00:41:17.945Z,0.0000
2023-04-04T00:42:19.959Z,0.0000
2023-04-04T00:43:22.190Z,0.0000
2023-04-04T00:44:24.237Z,0.0000
2023-04-04T00:45:26.298Z,0.0000
2023-04-04T00:46:28.276Z,0.0000
2023-04-04T00:47:30.370Z,0.0000
2023-04-04T00:48:32.374Z,0.0000
2023-04-04T00:49:34.567Z,0.0000
2023-04-04T00:50:36.587Z,0.0000
2023-04-04T00:51:38.741Z,0.0000
2023-04-04T00:52:40.816Z,0.0000
2023-04-04T00:53:43.000Z,0.0000
2023-04-04T00:54:45.102Z,0.0000
2023-04-04T00:55:47.214Z,0.0000
2023-04-04T00:56:49.376Z,0.0000
2023-04-04T00:57:51.513Z,0.0000
2023-04-04T00:58:53.613Z,0.0000
2023-04-04T00:59:55.684Z,0.0000
2023-04-04T01:00:56.434Z,0.0000
2023-04-04T01:01:58.559Z,0.0000
2023-04-04T01:03:00.707Z,0.0000
2023-04-04T01:04:02.796Z,0.0000
2023-04-04T01:05:04.981Z,0.0000
2023-04-04T01:06:07.107Z,0.0000
2023-04-04T01:07:09.308Z,0.0000
2023-04-04T01:08:11.637Z,0.0000
2023-04-04T01:09:13.665Z,0.0000
2023-04-04T01:10:15.809Z,0.0000
2023-04-04T01:11:17.889Z,0.0000
2023-04-04T01:12:20.014Z,0.0000
2023-04-04T01:13:22.077Z,0.0000
2023-04-04T01:14:24.217Z,0.0000
2023-04-04T01:15:26.329Z,0.0000
2023-04-04T01:16:28.438Z,0.0000
2023-04-04T01:17:30.594Z,0.0000
2023-04-04T01:18:32.681Z,0.0000
2023-04-04T01:19:34.755Z,0.0000
2023-04-04T01:20:36.988Z,0.0000
2023-04-04T01:21:39.154Z,0.0000
2023-04-04T01:22:41.267Z,0.0000
2023-04-04T01:23:43.423Z,0.0000
2023-04-04T01:24:45.539Z,0.0000
2023-04-04T01:25:48.194Z,0.0000
2023-04-04T01:26:50.293Z,0.0000
2023-04-04T01:27:52.405Z,0.0000
2023-04-04T01:28:54.514Z,0.0000
2023-04-04T01:29:56.619Z,0.0000
2023-04-04T01:30:58.801Z,0.0000
2023-04-04T01:32:00.932Z,0.0000
2023-04-04T01:33:03.057Z,0.0000
2023-04-04T01:34:05.209Z,0.0000
2023-04-04T01:35:07.225Z,0.0000
2023-04-04T01:36:09.372Z,0.0000
2023-04-04T01:37:13.500Z,0.0000
2023-04-04T01:38:15.594Z,0.0000
2023-04-04T01:39:16.265Z,0.0000
2023-04-04T01:40:18.393Z,0.0000
2023-04-04T01:41:20.570Z,0.0000
2023-04-04T01:42:22.701Z,0.0000
2023-04-04T01:43:24.829Z,0.0000
2023-04-04T01:44:26.981Z,0.0000
2023-04-04T01:45:29.087Z,0.0000
2023-04-04T01:46:31.349Z,0.0000
2023-04-04T01:47:33.628Z,0.0000
2023-04-04T01:48:35.752Z,0.0000
2023-04-04T01:49:37.864Z,0.0000
2023-04-04T01:50:40.278Z,0.0000
2023-04-04T01:51:41.448Z,0.0000
2023-04-04T01:52:43.566Z,0.0000
2023-04-04T01:53:44.263Z,0.0000
2023-04-04T01:54:46.370Z,0.0000
2023-04-04T01:55:48.501Z,0.0000
2023-04-04T01:56:50.603Z,0.0000
2023-04-04T01:57:52.650Z,0.0000
2023-04-04T01:58:54.802Z,0.0000
2023-04-04T01:59:56.937Z,0.0000
2023-04-04T02:00:59.013Z,0.0000
2023-04-04T02:02:01.102Z,0.0000
2023-04-04T02:03:03.233Z,0.0000
2023-04-04T02:04:05.354Z,0.0000
2023-04-04T02:05:07.481Z,0.0000
2023-04-04T02:06:09.630Z,0.0000
2023-04-04T02:07:11.369Z,0.0000
2023-04-04T02:08:13.518Z,0.0000
2023-04-04T02:09:15.652Z,0.0000
2023-04-04T02:10:17.733Z,0.0000
2023-04-04T02:11:19.861Z,0.0000
2023-04-04T02:12:22.032Z,0.0000
2023-04-04T02:13:24.151Z,0.0000
2023-04-04T02:14:26.241Z,0.0000
2023-04-04T02:15:28.363Z,0.0000
2023-04-04T02:16:30.551Z,0.0000
2023-04-04T02:17:32.688Z,0.0000
2023-04-04T02:18:34.825Z,0.0000
2023-04-04T02:19:36.991Z,0.0000
2023-04-04T02:20:39.337Z,0.0000
2023-04-04T02:21:41.640Z,0.0000
2023-04-04T02:22:43.745Z,0.0000
2023-04-04T02:23:45.833Z,0.0000
2023-04-04T02:24:47.933Z,0.0000
2023-04-04T02:25:50.022Z,0.0000
2023-04-04T02:26:52.122Z,0.0000
2023-04-04T02:27:54.272Z,0.0000
2023-04-04T02:28:56.379Z,0.0000
2023-04-04T02:29:58.476Z,0.0000
2023-04-04T02:31:00.598Z,0.0000
2023-04-04T02:32:02.697Z,0.0000
2023-04-04T02:33:04.805Z,0.0000
2023-04-04T02:34:07.008Z,0.0000
2023-04-04T02:35:09.161Z,0.0000
2023-04-04T02:36:11.291Z,0.0000
2023-04-04T02:37:13.431Z,0.0000
2023-04-04T02:38:15.634Z,0.0000
2023-04-04T02:39:17.715Z,0.0000
2023-04-04T02:40:19.863Z,0.0000
2023-04-04T02:41:21.942Z,0.0000
2023-04-04T02:42:24.049Z,0.0000
2023-04-04T02:43:26.184Z,0.0000
2023-04-04T02:44:28.371Z,0.0000
2023-04-04T02:45:30.466Z,0.0000
2023-04-04T02:46:32.707Z,0.0000
2023-04-04T02:47:34.823Z,0.0000
2023-04-04T02:48:36.960Z,0.0000
2023-04-04T02:49:39.079Z,0.0000
2023-04-04T02:50:41.385Z,0.0000
2023-04-04T02:51:43.643Z,0.0000
2023-04-04T02:52:45.754Z,0.0000
2023-04-04T02:53:47.872Z,0.0000
2023-04-04T02:54:49.948Z,0.0000
2023-04-04T02:55:52.064Z,0.0000
2023-04-04T02:56:54.155Z,0.0000
2023-04-04T02:57:56.268Z,0.0000
2023-04-04T02:58:56.969Z,0.0000
2023-04-04T02:59:59.105Z,0.0000
2023-04-04T03:01:01.267Z,0.0000
2023-04-04T03:02:03.423Z,0.0000
2023-04-04T03:03:05.764Z,0.0000
2023-04-04T03:04:05.864Z,0.0000
2023-04-04T03:05:08.062Z,0.0000
2023-04-04T03:06:10.149Z,0.0000
2023-04-04T03:07:12.283Z,0.0000
2023-04-04T03:08:14.469Z,0.0000
2023-04-04T03:09:16.618Z,0.0000
2023-04-04T03:10:18.684Z,0.0000
2023-04-04T03:11:20.800Z,0.0000
2023-04-04T03:12:22.934Z,0.0000
2023-04-04T03:13:25.025Z,0.0000
2023-04-04T03:14:27.185Z,0.0000
2023-04-04T03:15:29.287Z,0.0000
2023-04-04T03:16:31.465Z,0.0000
2023-04-04T03:17:33.593Z,0.0000
2023-04-04T03:18:35.709Z,0.0000
2023-04-04T03:19:37.845Z,0.0000
2023-04-04T03:20:40.157Z,0.0000
2023-04-04T03:21:40.099Z,0.0000
2023-04-04T03:22:42.264Z,0.0000
2023-04-04T03:23:44.418Z,0.0000
2023-04-04T03:24:46.563Z,0.0000
2023-04-04T03:25:48.656Z,0.0000
2023-04-04T03:26:50.941Z,0.0000
2023-04-04T03:27:53.028Z,0.0000
2023-04-04T03:28:55.165Z,0.0000
2023-04-04T03:29:57.320Z,0.0000
2023-04-04T03:30:59.438Z,0.0000
2023-04-04T03:32:01.649Z,0.0000
2023-04-04T03:33:03.891Z,0.0000
2023-04-04T03:34:06.082Z,0.0000
2023-04-04T03:35:08.243Z,0.0000
2023-04-04T03:36:10.423Z,0.0000
2023-04-04T03:37:12.628Z,0.0000
2023-04-04T03:38:14.750Z,0.0000
2023-04-04T03:39:16.852Z,0.0000
2023-04-04T03:40:19.040Z,0.0000
2023-04-04T03:41:21.226Z,0.0000
2023-04-04T03:42:23.461Z,0.0000
2023-04-04T03:43:25.633Z,0.0000
2023-04-04T03:44:27.810Z,0.0000
2023-04-04T03:45:29.922Z,0.0000
2023-04-04T03:46:33.533Z,0.0000
2023-04-04T03:47:34.403Z,0.0000
2023-04-04T03:48:35.177Z,0.0000
2023-04-04T03:49:35.849Z,0.0000
2023-04-04T03:50:38.217Z,0.0000
2023-04-04T03:51:40.543Z,0.0000
2023-04-04T03:52:42.632Z,0.0000
2023-04-04T03:53:44.777Z,0.0000
2023-04-04T03:54:46.913Z,0.0000
2023-04-04T03:55:49.649Z,0.0000
2023-04-04T03:56:49.556Z,0.0000
2023-04-04T03:57:51.651Z,0.0000
2023-04-04T03:58:53.781Z,0.0000
2023-04-04T03:59:55.983Z,0.0000
2023-04-04T04:00:58.075Z,0.0000
2023-04-04T04:02:00.209Z,0.0000
2023-04-04T04:03:02.421Z,0.0000
2023-04-04T04:04:04.643Z,0.0000
2023-04-04T04:05:06.819Z,0.0000
2023-04-04T04:06:08.929Z,0.0000
2023-04-04T04:07:11.091Z,0.0000
2023-04-04T04:08:13.213Z,0.0000
2023-04-04T04:09:15.321Z,0.0000
2023-04-04T04:10:17.477Z,0.0000
2023-04-04T04:11:19.596Z,0.0000
2023-04-04T04:12:21.744Z,0.0000
2023-04-04T04:13:23.913Z,0.0000
2023-04-04T04:14:26.065Z,0.0000
2023-04-04T04:15:26.734Z,0.0000
2023-04-04T04:16:28.942Z,0.0000
2023-04-04T04:17:31.061Z,0.0000
2023-04-04T04:18:33.221Z,0.0000
2023-04-04T04:19:35.365Z,0.0000
2023-04-04T04:20:37.505Z,0.0000
2023-04-04T04:21:39.621Z,0.0000
2023-04-04T04:22:41.749Z,0.0000
2023-04-04T04:23:43.906Z,0.0000
2023-04-04T04:24:46.086Z,0.0000
2023-04-04T04:25:48.178Z,0.0000
2023-04-04T04:26:50.311Z,0.0000
2023-04-04T04:27:52.436Z,0.0000
2023-04-04T04:28:54.616Z,0.3600
2023-04-04T04:29:56.786Z,3.0000
2023-04-04T04:30:58.917Z,3.0000
2023-04-04T04:32:01.165Z,1.7200
2023-04-04T04:33:03.350Z,0.8000
2023-04-04T04:34:05.483Z,4.0000
2023-04-04T04:35:07.640Z,5.0000
2023-04-04T04:36:09.856Z,4.5200
2023-04-04T04:37:12.031Z,7.7200
2023-04-04T04:38:14.197Z,7.0800
2023-04-04T04:39:16.390Z,11.4000
2023-04-04T04:40:18.515Z,11.9200
2023-04-04T04:41:20.697Z,15.2000
2023-04-04T04:42:22.928Z,22.4400
2023-04-04T04:43:25.136Z,32.1600
2023-04-04T04:44:27.340Z,20.6400
2023-04-04T04:45:29.487Z,40.3600
2023-04-04T04:46:31.668Z,42.8000
2023-04-04T04:47:33.831Z,57.3200
2023-04-04T04:48:36.001Z,61.8800
2023-04-04T04:49:38.135Z,77.8000
2023-04-04T04:50:40.405Z,102.4000
2023-04-04T04:51:42.572Z,114.0400
2023-04-04T04:52:44.735Z,132.2400
2023-04-04T04:53:46.862Z,155.7600
2023-04-04T04:54:49.052Z,189.2000
2023-04-04T04:55:51.197Z,227.4400
2023-04-04T04:56:53.334Z,250.6000
2023-04-04T04:57:55.500Z,277.9600
2023-04-04T04:58:57.712Z,319.1600
2023-04-04T04:59:59.870Z,358.6000
2023-04-04T05:01:02.046Z,407.0800
2023-04-04T05:02:04.209Z,454.4400
2023-04-04T05:03:06.388Z,501.8000
2023-04-04T05:04:08.480Z,555.3600
2023-04-04T05:05:10.643Z,613.5200
2023-04-04T05:06:12.862Z,663.2400
2023-04-04T05:07:15.035Z,714.4800
2023-04-04T05:08:17.292Z,770.8000
2023-04-04T05:09:19.653Z,824.8400
2023-04-04T05:10:21.730Z,876.6800
2023-04-04T05:11:23.961Z,935.3600
2023-04-04T05:12:26.119Z,995.0400
2023-04-04T05:13:28.244Z,1051.9200
2023-04-04T05:14:30.428Z,1108.0000
2023-04-04T05:15:32.613Z,1164.2000
2023-04-04T05:16:34.796Z,1224.5601
2023-04-04T05:17:36.977Z,1287.2000
2023-04-04T05:18:39.144Z,1343.9200
2023-04-04T05:19:41.366Z,1396.9200
2023-04-04T05:20:43.494Z,1454.0000
2023-04-04T05:21:45.652Z,1509.3600
2023-04-04T05:22:49.043Z,1565.6400
2023-04-04T05:23:50.293Z,1618.4166
2023-04-04T05:24:52.461Z,1673.5601
2023-04-04T05:25:54.666Z,1745.8800
2023-04-04T05:26:56.895Z,1811.4000
2023-04-04T05:27:59.135Z,1892.3600
2023-04-04T05:29:01.415Z,1939.6400
2023-04-04T05:30:03.605Z,1988.7600
2023-04-04T05:31:05.877Z,2042.4399
2023-04-04T05:32:08.174Z,2086.3601
2023-04-04T05:33:10.468Z,2124.0801
2023-04-04T05:34:12.710Z,2170.6799
2023-04-04T05:35:14.924Z,2216.5200
2023-04-04T05:36:17.200Z,2275.0400
2023-04-04T05:37:19.414Z,2339.8401
2023-04-04T05:38:21.564Z,2386.8000
2023-04-04T05:39:23.756Z,2430.8401
2023-04-04T05:40:25.964Z,2480.0400
2023-04-04T05:41:28.122Z,2534.6799
2023-04-04T05:42:30.342Z,2596.6001
2023-04-04T05:43:32.483Z,2676.8799
2023-04-04T05:44:34.717Z,2720.5601
2023-04-04T05:45:36.927Z,2768.4399
2023-04-04T05:46:39.182Z,2803.6001
2023-04-04T05:47:41.423Z,2851.9600
2023-04-04T05:48:43.749Z,2913.1599
2023-04-04T05:49:45.938Z,2979.6799
2023-04-04T05:50:48.141Z,3058.8401
2023-04-04T05:51:50.335Z,3146.0000
2023-04-04T05:52:52.451Z,3390.2400
2023-04-04T05:53:54.685Z,3774.5601
2023-04-04T05:54:56.912Z,3878.6399
2023-04-04T05:55:59.138Z,3960.1599
2023-04-04T05:57:01.330Z,4305.3198
2023-04-04T05:58:03.626Z,4068.3601
2023-04-04T05:59:05.858Z,4289.4399
2023-04-04T06:00:08.115Z,4640.2798
2023-04-04T06:01:10.317Z,4888.4399
2023-04-04T06:02:12.541Z,5139.2798
2023-04-04T06:03:14.863Z,5427.6401
2023-04-04T06:04:17.283Z,5759.8799
2023-04-04T06:05:19.564Z,5428.3599
2023-04-04T06:06:21.945Z,5597.5601
2023-04-04T06:07:24.181Z,5795.4800
2023-04-04T06:08:26.425Z,5942.7598
2023-04-04T06:09:28.638Z,5916.2798
2023-04-04T06:10:30.858Z,5982.5200
2023-04-04T06:11:33.081Z,5930.4800
2023-04-04T06:12:35.310Z,6155.2402
2023-04-04T06:13:37.513Z,6460.3999
2023-04-04T06:14:39.712Z,6642.2002
2023-04-04T06:15:41.956Z,7084.9600
2023-04-04T06:16:44.191Z,7038.6001
2023-04-04T06:17:46.403Z,7419.8799
2023-04-04T06:18:48.655Z,7695.3198
2023-04-04T06:19:50.914Z,7444.0400
2023-04-04T06:20:53.073Z,7205.7998
2023-04-04T06:21:55.303Z,7496.7202
2023-04-04T06:22:57.483Z,7406.6001
2023-04-04T06:23:59.683Z,7512.8799
2023-04-04T06:25:01.837Z,7151.1201
2023-04-04T06:26:04.069Z,7795.7202
2023-04-04T06:27:06.254Z,7520.6802
2023-04-04T06:28:08.394Z,7934.6401
2023-04-04T06:29:10.578Z,7920.1602
2023-04-04T06:30:12.761Z,8010.3599
2023-04-04T06:31:15.000Z,8325.7197
2023-04-04T06:32:17.132Z,8403.7197
2023-04-04T06:33:19.330Z,8472.4805
2023-04-04T06:34:21.508Z,7527.6001
2023-04-04T06:35:23.676Z,7353.3198
2023-04-04T06:36:25.900Z,7891.1602
2023-04-04T06:37:28.055Z,8657.6797
2023-04-04T06:38:30.186Z,8742.5996
2023-04-04T06:39:32.450Z,8942.8799
2023-04-04T06:40:34.602Z,8423.6797
2023-04-04T06:41:36.777Z,9191.8799
2023-04-04T06:42:38.964Z,9347.8799
2023-04-04T06:43:41.117Z,9729.4404
2023-04-04T06:44:43.331Z,9782.3604
2023-04-04T06:45:45.467Z,9102.3203
2023-04-04T06:46:47.671Z,9708.5996
2023-04-04T06:47:49.936Z,10116.2803
2023-04-04T06:48:52.189Z,9718.0400
2023-04-04T06:49:54.479Z,8825.2803
2023-04-04T06:50:56.654Z,10157.7598
2023-04-04T06:51:58.829Z,10110.8799
2023-04-04T06:53:00.998Z,10741.1201
2023-04-04T06:54:03.195Z,10669.7197
2023-04-04T06:55:05.452Z,10422.9600
2023-04-04T06:56:07.600Z,10586.5996
2023-04-04T06:57:09.787Z,9575.1602
2023-04-04T06:58:11.975Z,9051.1201
2023-04-04T06:59:14.155Z,9806.0000
2023-04-04T07:00:16.309Z,11123.1201
2023-04-04T07:01:18.518Z,11604.7197
2023-04-04T07:02:20.864Z,11593.0400
2023-04-04T07:03:23.037Z,11660.4004
2023-04-04T07:04:25.194Z,11324.4404
2023-04-04T07:05:27.330Z,11135.6797
2023-04-04T07:06:29.516Z,11069.7197
2023-04-04T07:07:31.655Z,12284.2402
2023-04-04T07:08:36.263Z,11962.5996
2023-04-04T07:09:34.183Z,10723.1309
2023-04-04T07:10:36.381Z,11575.7598
2023-04-04T07:11:38.554Z,12705.2803
2023-04-04T07:12:40.720Z,12840.9600
2023-04-04T07:13:42.860Z,12750.3604
2023-04-04T07:14:44.999Z,12911.5996
2023-04-04T07:15:47.123Z,12746.7598
2023-04-04T07:16:49.432Z,13199.7998
2023-04-04T07:17:51.729Z,12216.0000
2023-04-04T07:18:53.872Z,13185.6396
2023-04-04T07:19:55.990Z,14048.7998
2023-04-04T07:20:58.197Z,14656.4404
2023-04-04T07:22:00.328Z,14914.9199
2023-04-04T07:23:02.464Z,14439.7598
2023-04-04T07:24:04.628Z,13581.7197
2023-04-04T07:25:06.775Z,13286.7197
2023-04-04T07:26:08.914Z,13807.5596
2023-04-04T07:27:11.085Z,14620.4404
2023-04-04T07:28:13.673Z,15303.0801
2023-04-04T07:29:13.595Z,13967.0000
2023-04-04T07:30:15.749Z,14399.5996
2023-04-04T07:31:17.882Z,14048.3604
2023-04-04T07:32:20.049Z,13516.7998
2023-04-04T07:33:22.243Z,13384.4004
2023-04-04T07:34:24.387Z,13707.9600
2023-04-04T07:35:26.530Z,14397.0000
2023-04-04T07:36:28.740Z,13872.7598
2023-04-04T07:37:30.891Z,12417.5596
2023-04-04T07:38:33.061Z,12157.5195
2023-04-04T07:39:35.247Z,14004.2002
2023-04-04T07:40:37.673Z,14190.5996
2023-04-04T07:41:37.682Z,12817.0830
2023-04-04T07:42:39.840Z,11654.2002
2023-04-04T07:43:41.992Z,12467.1602
2023-04-04T07:44:44.123Z,14288.4404
2023-04-04T07:45:46.344Z,12917.9600
2023-04-04T07:46:58.667Z,15952.2402
2023-04-04T07:47:49.141Z,15462.6816
2023-04-04T07:48:51.234Z,15254.6396
2023-04-04T07:49:53.426Z,14892.6797
2023-04-04T07:50:55.581Z,15201.2402
2023-04-04T07:51:57.729Z,14792.1602
2023-04-04T07:52:59.895Z,14634.2402
2023-04-04T07:54:02.106Z,15678.1201
2023-04-04T07:55:04.273Z,17197.1191
2023-04-04T07:56:06.437Z,17506.4805
2023-04-04T07:57:08.561Z,15694.3203
2023-04-04T07:58:10.718Z,14722.0400
2023-04-04T07:59:12.919Z,14488.7598
2023-04-04T08:00:15.002Z,15016.9199
2023-04-04T08:01:17.139Z,14582.8398
2023-04-04T08:02:19.387Z,15341.0801
2023-04-04T08:03:21.699Z,14165.2402
2023-04-04T08:04:23.985Z,14756.4404
2023-04-04T08:05:26.240Z,13536.2402
2023-04-04T08:06:28.378Z,16345.8398
2023-04-04T08:07:30.526Z,18080.1992
2023-04-04T08:08:32.686Z,18715.8809
2023-04-04T08:09:34.863Z,18055.6406
2023-04-04T08:10:37.021Z,18162.9199
2023-04-04T08:11:39.149Z,19540.8809
2023-04-04T08:12:41.295Z,18899.0391
2023-04-04T08:13:43.439Z,19311.5605
2023-04-04T08:14:45.580Z,18070.6797
2023-04-04T08:15:47.756Z,19265.2402
2023-04-04T08:16:49.880Z,18051.0391
2023-04-04T08:17:52.148Z,17888.6406
2023-04-04T08:18:54.322Z,16476.7598
2023-04-04T08:19:56.467Z,15272.5195
2023-04-04T08:20:58.608Z,17439.2793
2023-04-04T08:22:00.761Z,17345.5195
2023-04-04T08:23:03.026Z,16686.5195
2023-04-04T08:24:05.133Z,16799.8398
2023-04-04T08:25:07.308Z,15061.7998
2023-04-04T08:26:09.409Z,15053.2803
2023-04-04T08:27:11.560Z,15641.0000
2023-04-04T08:28:13.787Z,14884.0000
2023-04-04T08:29:15.960Z,16241.7998
2023-04-04T08:30:18.067Z,15071.4404
2023-04-04T08:31:20.229Z,14391.7598
2023-04-04T08:32:22.521Z,13911.3203
2023-04-04T08:33:31.387Z,13604.8799
2023-04-04T08:34:25.297Z,14042.8184
2023-04-04T08:35:27.432Z,17282.4805
2023-04-04T08:36:29.574Z,18301.2793
2023-04-04T08:37:31.759Z,17637.3203
2023-04-04T08:38:33.918Z,16465.8809
2023-04-04T08:39:36.048Z,15709.0400
2023-04-04T08:40:38.508Z,16730.1992
2023-04-04T08:41:38.558Z,16832.0000
2023-04-04T08:42:40.692Z,18318.8008
2023-04-04T08:43:42.852Z,19240.4004
2023-04-04T08:44:44.963Z,20214.8008
2023-04-04T08:45:47.114Z,20869.1191
2023-04-04T08:46:49.331Z,20549.5996
2023-04-04T08:47:51.501Z,20925.0000
2023-04-04T08:48:53.640Z,21396.0391
2023-04-04T08:49:55.787Z,20517.1602
2023-04-04T08:50:57.947Z,20122.9609
2023-04-04T08:52:00.145Z,20827.8008
2023-04-04T08:53:02.337Z,22773.2402
2023-04-04T08:54:04.477Z,19802.5195
2023-04-04T08:55:06.587Z,16078.8398
2023-04-04T08:56:08.797Z,12088.0000
2023-04-04T08:57:10.879Z,12065.9199
2023-04-04T08:58:13.026Z,11986.2402
2023-04-04T08:59:15.216Z,12903.2402
2023-04-04T09:00:17.473Z,11512.5195
2023-04-04T09:01:19.673Z,11412.0400
2023-04-04T09:02:21.872Z,12649.2002
2023-04-04T09:03:24.039Z,12315.0400
2023-04-04T09:04:26.189Z,11298.0000
2023-04-04T09:05:28.333Z,10866.4004
2023-04-04T09:06:30.478Z,10728.6396
2023-04-04T09:07:32.656Z,10721.7598
2023-04-04T09:08:34.840Z,10772.1602
2023-04-04T09:09:36.939Z,10802.9199
2023-04-04T09:10:39.208Z,10148.9600
2023-04-04T09:11:41.450Z,10450.5596
2023-04-04T09:12:43.609Z,10281.7598
2023-04-04T09:13:45.839Z,10186.7598
2023-04-04T09:14:48.084Z,10172.1602
2023-04-04T09:15:50.224Z,10202.6797
2023-04-04T09:16:52.458Z,10345.5996
2023-04-04T09:17:54.631Z,10257.5996
2023-04-04T09:18:56.757Z,9984.9199
2023-04-04T09:19:58.885Z,8748.3203
2023-04-04T09:21:01.077Z,9646.3203
2023-04-04T09:22:03.269Z,9528.9199
2023-04-04T09:23:05.422Z,9934.2402
2023-04-04T09:24:07.605Z,9825.7598
2023-04-04T09:25:09.763Z,9888.7998
2023-04-04T09:26:11.913Z,9897.3604
2023-04-04T09:27:14.070Z,9493.2002
2023-04-04T09:28:16.283Z,9827.5996
2023-04-04T09:29:18.432Z,9266.2402
2023-04-04T09:30:20.627Z,9876.4805
2023-04-04T09:31:22.871Z,9876.9600
2023-04-04T09:32:25.258Z,9948.4004
2023-04-04T09:33:27.488Z,9907.5996
2023-04-04T09:34:29.643Z,9878.1602
2023-04-04T09:35:31.866Z,9875.1201
2023-04-04T09:36:34.018Z,9920.4004
2023-04-04T09:37:36.190Z,10501.7998
2023-04-04T09:38:38.365Z,11037.2002
2023-04-04T09:39:40.887Z,10173.0801
2023-04-04T09:40:43.265Z,9908.6396
2023-04-04T09:41:43.157Z,9917.8750
2023-04-04T09:42:45.313Z,9952.4805
2023-04-04T09:43:47.791Z,9937.0400
2023-04-04T09:44:47.634Z,9902.6670
2023-04-04T09:45:50.238Z,9865.0000
2023-04-04T09:46:50.323Z,9864.1670
2023-04-04T09:47:52.518Z,9900.6797
2023-04-04T09:48:54.723Z,9862.3203
2023-04-04T09:49:56.864Z,9817.4004
2023-04-04T09:50:59.027Z,9829.3203
2023-04-04T09:52:01.153Z,9766.5596
2023-04-04T09:53:03.274Z,9748.2402
2023-04-04T09:54:06.386Z,9748.0000
2023-04-04T09:55:06.187Z,9777.9170
2023-04-04T09:56:08.403Z,9762.0801
2023-04-04T09:57:10.550Z,9702.0400
2023-04-04T09:58:12.795Z,9692.0400
2023-04-04T09:59:14.999Z,9529.8799
2023-04-04T10:00:17.187Z,9621.9199
2023-04-04T10:01:19.427Z,9723.3604
2023-04-04T10:02:21.594Z,9761.7998
2023-04-04T10:03:23.789Z,9780.5996
2023-04-04T10:04:26.022Z,9797.8398
2023-04-04T10:05:28.225Z,9746.6396
2023-04-04T10:06:30.461Z,9700.5195
2023-04-04T10:07:32.623Z,9659.8799
2023-04-04T10:08:34.890Z,9633.0400
2023-04-04T10:09:37.165Z,9617.6797
2023-04-04T10:10:39.488Z,9627.0400
2023-04-04T10:11:39.537Z,9615.9580
2023-04-04T10:12:41.705Z,9605.4404
2023-04-04T10:13:44.036Z,9547.5996
2023-04-04T10:14:44.127Z,9499.8750
2023-04-04T10:15:46.365Z,9508.5596
2023-04-04T10:16:48.557Z,9508.0000
2023-04-04T10:17:50.815Z,9466.2002
2023-04-04T10:18:53.062Z,9470.2002
2023-04-04T10:19:55.278Z,9502.2803
2023-04-04T10:21:04.735Z,9448.5996
2023-04-04T10:21:58.138Z,9413.3633
2023-04-04T10:23:00.330Z,9473.6797
2023-04-04T10:24:02.575Z,9571.6797
2023-04-04T10:25:04.772Z,9628.3604
2023-04-04T10:26:06.998Z,9654.5195
2023-04-04T10:27:09.182Z,9532.7197
2023-04-04T10:28:11.344Z,9442.9600
2023-04-04T10:29:13.593Z,9457.5195
2023-04-04T10:30:15.746Z,9486.8398
2023-04-04T10:31:17.951Z,9524.0400
2023-04-04T10:32:20.162Z,9553.0801
2023-04-04T10:33:22.398Z,9599.6396
2023-04-04T10:34:24.645Z,9640.4004
2023-04-04T10:35:26.884Z,9703.4004
2023-04-04T10:36:29.056Z,9716.9199
2023-04-04T10:37:31.258Z,9660.0801
2023-04-04T10:38:33.443Z,9700.7598
2023-04-04T10:39:35.674Z,9702.4404
2023-04-04T10:40:38.274Z,9615.1602
2023-04-04T10:41:38.242Z,9515.9580
2023-04-04T10:42:40.462Z,9519.8799
2023-04-04T10:43:42.664Z,9547.2402
2023-04-04T10:44:44.918Z,9580.3203
2023-04-04T10:45:47.192Z,9596.5996
2023-04-04T10:46:47.279Z,9678.0000
2023-04-04T10:47:49.584Z,9762.7197
2023-04-04T10:48:51.875Z,9892.5195
2023-04-04T10:49:54.008Z,9982.4805
2023-04-04T10:50:56.197Z,10048.5996
2023-04-04T10:51:58.411Z,10056.0000
2023-04-04T10:53:00.599Z,10076.4404
2023-04-04T10:54:02.773Z,10107.9199
2023-04-04T10:55:04.955Z,10170.3203
2023-04-04T10:56:07.174Z,10190.4805
2023-04-04T10:57:09.422Z,10061.6396
2023-04-04T10:58:11.585Z,9957.9199
2023-04-04T10:59:13.786Z,9932.7998
2023-04-04T11:00:14.392Z,10020.6250
2023-04-04T11:01:16.621Z,10079.5195
2023-04-04T11:02:18.842Z,10141.8398
2023-04-04T11:03:21.025Z,12872.4004
2023-04-04T11:04:23.254Z,24915.9609
2023-04-04T11:05:25.498Z,36760.3594
2023-04-04T11:06:27.709Z,33135.4805
2023-04-04T11:07:29.895Z,15948.8398
2023-04-04T11:08:32.086Z,10216.3203
2023-04-04T11:09:34.261Z,16365.7197
2023-04-04T11:10:36.466Z,26227.1992
2023-04-04T11:11:38.639Z,26920.6406
2023-04-04T11:12:40.827Z,19051.4395
2023-04-04T11:13:43.008Z,11345.5195
2023-04-04T11:14:45.209Z,10422.1201
2023-04-04T11:15:47.380Z,10447.5195
2023-04-04T11:16:49.637Z,10410.8398
2023-04-04T11:17:51.825Z,10440.6396
2023-04-04T11:18:53.971Z,10569.0400
2023-04-04T11:19:56.174Z,10598.0400
2023-04-04T11:20:58.320Z,10603.8799
2023-04-04T11:22:00.500Z,10619.0801
2023-04-04T11:23:02.668Z,10716.9199
2023-04-04T11:24:04.901Z,10905.4004
2023-04-04T11:25:07.078Z,11363.0400
2023-04-04T11:26:09.290Z,11402.6797
2023-04-04T11:27:11.466Z,11265.2803
2023-04-04T11:28:13.652Z,11229.7598
2023-04-04T11:29:15.852Z,11169.6396
2023-04-04T11:30:18.044Z,11208.3604
2023-04-04T11:31:20.255Z,11219.7998
2023-04-04T11:32:22.476Z,11122.0400
2023-04-04T11:33:24.710Z,11107.0400
2023-04-04T11:34:26.860Z,11039.5596
2023-04-04T11:35:29.056Z,10923.8398
2023-04-04T11:36:31.289Z,10908.8398
2023-04-04T11:37:33.405Z,11229.1602
2023-04-04T11:38:35.619Z,33917.9219
2023-04-04T11:39:37.781Z,148487.9219
2023-04-04T11:40:39.947Z,148425.0469
2023-04-04T11:41:42.100Z,148434.2812
2023-04-04T11:42:44.261Z,148418.2344
2023-04-04T11:43:46.362Z,148409.6875
2023-04-04T11:44:48.520Z,148507.4062
2023-04-04T11:45:50.660Z,148622.4844
2023-04-04T11:46:52.779Z,148738.7656
2023-04-04T11:47:54.881Z,148838.5938
2023-04-04T11:48:56.978Z,148967.0781
2023-04-04T11:49:59.070Z,149111.7656
2023-04-04T11:51:01.147Z,149234.6406
2023-04-04T11:52:03.239Z,149365.8750
2023-04-04T11:53:05.308Z,149472.3594
2023-04-04T11:54:07.346Z,149532.5625
2023-04-04T11:55:09.392Z,149573.8438
2023-04-04T11:56:11.464Z,149613.2812
2023-04-04T11:57:13.532Z,149637.0781
2023-04-04T11:58:15.590Z,149710.9531
2023-04-04T11:59:17.676Z,149740.4844
2023-04-04T12:00:19.719Z,149702.8438
2023-04-04T12:01:21.832Z,149662.1562
2023-04-04T12:02:23.940Z,149670.5938
2023-04-04T12:03:26.092Z,149744.0469
2023-04-04T12:04:28.071Z,149799.7656
2023-04-04T12:05:29.290Z,149814.4375
2023-04-04T12:06:29.280Z,149802.6562